Time;durP1;ratioP1;P1;durP2;ratioP2;P2;SDS_P1;SDS_P2;PMS_P1;PMS_P2;Temp;Humidity;BMP_temperature;BMP_pressure;BME280_temperature;BME280_humidity;BME280_pressure;Samples;Min_cycle;Max_cycle;Signal;HPM_P1;HPM_P2
2024/01/30 00:02:18;;;;;;;0.28;0.28;;;;;;;;;;5018028;28;20053;-76
2024/01/30 00:04:46;;;;;;;3.35;2.55;;;;;;;;;;5015287;28;20565;-77
2024/01/30 00:07:13;;;;;;;2.60;2.40;;;;;;;;;;5022575;28;20108;-78
2024/01/30 00:09:41;;;;;;;5.65;4.72;;;;;;;;;;5020033;28;20107;-78
2024/01/30 00:12:08;;;;;;;2.38;1.48;;;;;;;;;;5020241;28;20049;-75
2024/01/30 00:14:36;;;;;;;0.75;0.75;;;;;;;;;;5019156;28;20152;-75
2024/01/30 00:17:04;;;;;;;1.38;1.38;;;;;;;;;;5018398;28;20461;-76
2024/01/30 00:19:31;;;;;;;3.97;3.10;;;;;;;;;;5015509;28;20132;-76
2024/01/30 00:21:59;;;;;;;0.73;0.73;;;;;;;;;;5022014;28;20049;-72
2024/01/30 00:24:27;;;;;;;1.35;1.35;;;;;;;;;;5025446;28;20136;-73
2024/01/30 00:26:54;;;;;;;2.35;1.83;;;;;;;;;;5026748;28;20411;-72
2024/01/30 00:29:22;;;;;;;0.75;0.75;;;;;;;;;;5026391;28;20041;-72
2024/01/30 00:31:50;;;;;;;0.20;0.20;;;;;;;;;;5025401;28;20435;-73
2024/01/30 00:34:17;;;;;;;3.00;2.70;;;;;;;;;;5038539;22;20036;-82
2024/01/30 00:36:45;;;;;;;0.82;0.82;;;;;;;;;;5001255;28;20058;-82
2024/01/30 00:39:12;;;;;;;0.10;0.10;;;;;;;;;;4999800;28;20049;-82
2024/01/30 00:41:39;;;;;;;0.20;0.20;;;;;;;;;;4985558;28;20050;-81
2024/01/30 00:44:07;;;;;;;1.15;0.80;;;;;;;;;;5000921;28;20154;-82
2024/01/30 00:46:34;;;;;;;2.38;2.17;;;;;;;;;;4997849;28;20056;-78
2024/01/30 00:49:02;;;;;;;0.98;0.93;;;;;;;;;;4996754;28;20050;-79
2024/01/30 00:51:29;;;;;;;1.33;1.30;;;;;;;;;;4996074;28;20085;-79
2024/01/30 00:53:57;;;;;;;1.27;1.27;;;;;;;;;;4993725;28;20047;-78
2024/01/30 00:56:24;;;;;;;0.75;0.52;;;;;;;;;;4995832;28;20038;-79
2024/01/30 00:58:51;;;;;;;0.70;0.70;;;;;;;;;;4996754;28;20061;-79
2024/01/30 01:01:19;;;;;;;2.78;2.58;;;;;;;;;;4997719;28;20579;-79
2024/01/30 01:03:47;;;;;;;0.60;0.60;;;;;;;;;;4999085;28;20050;-79
2024/01/30 01:06:14;;;;;;;0.57;0.57;;;;;;;;;;4998106;28;20582;-79
2024/01/30 01:08:42;;;;;;;2.88;1.27;;;;;;;;;;5000912;28;20066;-79
2024/01/30 01:11:09;;;;;;;0.98;0.98;;;;;;;;;;5001176;28;20050;-79
2024/01/30 01:13:36;;;;;;;1.67;1.38;;;;;;;;;;5001766;28;20116;-79
2024/01/30 01:16:04;;;;;;;1.08;0.75;;;;;;;;;;5000413;28;20042;-79
2024/01/30 01:18:31;;;;;;;5.22;1.88;;;;;;;;;;5006506;28;20038;-79
2024/01/30 01:21:00;;;;;;;1.42;1.33;;;;;;;;;;5005622;28;20042;-79
2024/01/30 01:23:27;;;;;;;5.63;4.35;;;;;;;;;;5010032;28;20234;-79
2024/01/30 01:25:55;;;;;;;6.63;1.55;;;;;;;;;;5007356;28;20048;-79
2024/01/30 01:28:27;;;;;;;5.10;4.75;;;;;;;;;;5001197;28;20046;-79
2024/01/30 01:30:58;;;;;;;0.10;0.10;;;;;;;;;;5002183;28;20073;-79
2024/01/30 01:33:26;;;;;;;;;;;;;;;;;;5008756;28;20520;-79
2024/01/30 01:35:53;;;;;;;1.40;1.30;;;;;;;;;;5009590;28;19941;-79
2024/01/30 01:38:20;;;;;;;0.90;0.90;;;;;;;;;;5001852;28;20042;-80
2024/01/30 01:40:48;;;;;;;3.75;2.28;;;;;;;;;;4996991;28;20042;-79
2024/01/30 01:43:15;;;;;;;1.65;0.80;;;;;;;;;;4992448;28;20124;-79
2024/01/30 01:45:43;;;;;;;2.28;2.08;;;;;;;;;;4991036;28;20034;-79
2024/01/30 01:48:10;;;;;;;1.38;1.27;;;;;;;;;;4988480;28;20055;-79
2024/01/30 01:50:38;;;;;;;1.40;1.33;;;;;;;;;;4993025;28;20054;-79
2024/01/30 01:53:07;;;;;;;0.57;0.52;;;;;;;;;;4994366;28;20047;-79
2024/01/30 01:55:36;;;;;;;2.22;2.10;;;;;;;;;;4991756;28;20046;-79
2024/01/30 01:58:03;;;;;;;0.90;0.90;;;;;;;;;;4993022;28;20424;-79
2024/01/30 02:00:31;;;;;;;0.82;0.82;;;;;;;;;;4992520;28;20389;-79
2024/01/30 02:02:58;;;;;;;3.50;2.13;;;;;;;;;;4991206;28;20051;-80
2024/01/30 02:05:26;;;;;;;1.27;1.25;;;;;;;;;;4994345;28;20073;-79
2024/01/30 02:07:54;;;;;;;3.00;2.80;;;;;;;;;;4986887;28;20050;-79
2024/01/30 02:10:21;;;;;;;1.50;1.35;;;;;;;;;;4992260;28;20038;-79
2024/01/30 02:12:49;;;;;;;1.92;1.75;;;;;;;;;;4993503;28;20052;-79
2024/01/30 02:15:18;;;;;;;0.22;0.22;;;;;;;;;;4997155;28;20048;-79
2024/01/30 02:17:45;;;;;;;1.25;1.25;;;;;;;;;;4996974;28;20129;-79
2024/01/30 02:20:13;;;;;;;3.28;2.03;;;;;;;;;;4995671;28;20050;-79
2024/01/30 02:22:41;;;;;;;0.80;0.80;;;;;;;;;;5000841;28;20057;-79
2024/01/30 02:25:08;;;;;;;0.10;0.10;;;;;;;;;;4998598;28;20042;-80
2024/01/30 02:27:36;;;;;;;1.08;1.08;;;;;;;;;;5002205;28;20046;-80
2024/01/30 02:30:03;;;;;;;2.20;2.08;;;;;;;;;;4996000;28;20531;-80
2024/01/30 02:32:31;;;;;;;0.82;0.82;;;;;;;;;;4999493;28;20329;-81
2024/01/30 02:34:58;;;;;;;2.05;1.85;;;;;;;;;;4996912;28;20046;-80
2024/01/30 02:37:25;;;;;;;0.90;0.47;;;;;;;;;;5001431;28;20046;-80
2024/01/30 02:39:53;;;;;;;0.73;0.63;;;;;;;;;;5001933;28;20080;-81
2024/01/30 02:42:20;;;;;;;1.35;1.30;;;;;;;;;;5000908;28;20197;-80
2024/01/30 02:44:47;;;;;;;2.42;1.85;;;;;;;;;;4999676;28;20059;-79
2024/01/30 02:47:15;;;;;;;2.30;2.15;;;;;;;;;;4989712;28;20061;-80
2024/01/30 02:49:42;;;;;;;2.65;2.45;;;;;;;;;;5000520;28;20305;-80
2024/01/30 02:52:09;;;;;;;1.23;0.98;;;;;;;;;;4998190;28;20061;-80
2024/01/30 02:54:37;;;;;;;3.63;2.28;;;;;;;;;;4999648;28;20042;-81
2024/01/30 02:57:04;;;;;;;0.88;0.88;;;;;;;;;;5000398;28;20047;-81
2024/01/30 02:59:35;;;;;;;5.32;3.50;;;;;;;;;;4998211;28;20039;-80
2024/01/30 03:02:02;;;;;;;0.65;0.55;;;;;;;;;;4997656;28;20034;-80
2024/01/30 03:04:30;;;;;;;3.30;3.00;;;;;;;;;;5001513;28;20050;-80
2024/01/30 03:06:58;;;;;;;0.90;0.88;;;;;;;;;;5000037;28;20054;-80
2024/01/30 03:09:25;;;;;;;0.70;0.70;;;;;;;;;;5002482;28;20046;-80
2024/01/30 03:11:52;;;;;;;0.60;0.60;;;;;;;;;;5001283;28;20042;-80
2024/01/30 03:14:20;;;;;;;1.35;1.25;;;;;;;;;;4996866;28;20046;-80
2024/01/30 03:16:47;;;;;;;0.38;0.38;;;;;;;;;;4995495;28;20047;-80
2024/01/30 03:19:14;;;;;;;0.43;0.43;;;;;;;;;;4998219;28;20038;-81
2024/01/30 03:21:42;;;;;;;0.73;0.73;;;;;;;;;;5005097;28;20050;-80
2024/01/30 03:24:09;;;;;;;5.07;4.63;;;;;;;;;;5006852;28;20047;-80
2024/01/30 03:26:37;;;;;;;0.45;0.45;;;;;;;;;;5010396;28;20026;-80
2024/01/30 03:29:04;;;;;;;10.65;2.05;;;;;;;;;;5013463;28;20097;-81
2024/01/30 03:31:32;;;;;;;2.42;2.25;;;;;;;;;;5010182;28;20062;-80
2024/01/30 03:33:59;;;;;;;1.98;1.58;;;;;;;;;;5007742;28;20038;-80
2024/01/30 03:36:27;;;;;;;1.60;1.50;;;;;;;;;;5003988;28;20046;-80
2024/01/30 03:38:54;;;;;;;1.30;1.20;;;;;;;;;;5005579;28;20046;-80
2024/01/30 03:41:21;;;;;;;1.60;1.27;;;;;;;;;;5000866;28;20046;-80
2024/01/30 03:43:49;;;;;;;3.22;2.92;;;;;;;;;;5004823;28;20050;-80
2024/01/30 03:46:16;;;;;;;2.47;1.88;;;;;;;;;;4998665;28;20072;-80
2024/01/30 03:48:43;;;;;;;1.27;1.17;;;;;;;;;;5000377;28;20054;-80
2024/01/30 03:51:15;;;;;;;1.00;1.00;;;;;;;;;;5005682;28;20046;-80
2024/01/30 03:53:43;;;;;;;1.55;1.45;;;;;;;;;;5006580;28;20050;-80
2024/01/30 03:56:10;;;;;;;1.30;1.27;;;;;;;;;;4999152;28;20050;-81
2024/01/30 03:58:37;;;;;;;1.45;1.35;;;;;;;;;;5006766;28;20069;-80
2024/01/30 04:01:05;;;;;;;1.38;1.13;;;;;;;;;;5004831;28;20046;-80
2024/01/30 04:03:32;;;;;;;2.58;2.47;;;;;;;;;;5006626;28;20173;-80
2024/01/30 04:06:00;;;;;;;2.03;1.92;;;;;;;;;;4999470;28;20042;-80
2024/01/30 04:08:27;;;;;;;3.28;2.28;;;;;;;;;;5002174;28;20039;-80
2024/01/30 04:10:54;;;;;;;0.93;0.93;;;;;;;;;;5002971;28;20115;-80
2024/01/30 04:13:21;;;;;;;0.10;0.10;;;;;;;;;;5001978;28;20051;-80
2024/01/30 04:15:49;;;;;;;0.75;0.75;;;;;;;;;;4986066;28;20040;-80
2024/01/30 04:18:16;;;;;;;1.38;0.95;;;;;;;;;;5003971;28;20073;-80
2024/01/30 04:20:44;;;;;;;0.17;0.17;;;;;;;;;;5003785;28;20061;-80
2024/01/30 04:23:11;;;;;;;1.52;1.42;;;;;;;;;;4999559;28;20048;-80
2024/01/30 04:25:38;;;;;;;1.70;1.58;;;;;;;;;;5001895;28;20051;-79
2024/01/30 04:28:06;;;;;;;2.22;2.03;;;;;;;;;;5001540;28;20054;-80
2024/01/30 04:30:33;;;;;;;3.95;2.55;;;;;;;;;;5004981;28;20050;-80
2024/01/30 04:33:00;;;;;;;2.38;2.17;;;;;;;;;;4997546;28;20050;-79
2024/01/30 04:35:28;;;;;;;2.10;1.98;;;;;;;;;;4998025;28;20034;-80
2024/01/30 04:37:55;;;;;;;2.42;1.77;;;;;;;;;;5001129;28;20057;-80
2024/01/30 04:40:23;;;;;;;4.65;3.22;;;;;;;;;;5000461;28;20060;-80
2024/01/30 04:42:50;;;;;;;4.65;4.00;;;;;;;;;;5005035;28;20061;-80
2024/01/30 04:45:17;;;;;;;3.15;2.80;;;;;;;;;;5003401;28;20038;-81
2024/01/30 04:47:46;;;;;;;2.45;2.25;;;;;;;;;;5004928;28;20058;-80
2024/01/30 04:50:14;;;;;;;5.57;3.15;;;;;;;;;;5002281;28;20409;-80
2024/01/30 04:52:41;;;;;;;2.50;2.08;;;;;;;;;;5007042;28;20062;-80
2024/01/30 04:55:09;;;;;;;4.20;3.83;;;;;;;;;;5003308;28;20433;-80
2024/01/30 04:57:36;;;;;;;1.08;1.02;;;;;;;;;;5008508;28;20046;-80
2024/01/30 05:00:05;;;;;;;4.40;3.45;;;;;;;;;;5003373;28;20054;-80
2024/01/30 05:02:32;;;;;;;0.32;0.32;;;;;;;;;;5000214;28;20085;-79
2024/01/30 05:04:59;;;;;;;0.75;0.75;;;;;;;;;;5006423;28;20062;-79
2024/01/30 05:07:27;;;;;;;0.95;0.95;;;;;;;;;;5010757;28;20050;-80
2024/01/30 05:09:54;;;;;;;0.45;0.45;;;;;;;;;;5015380;28;20054;-80
2024/01/30 05:12:25;;;;;;;0.45;0.45;;;;;;;;;;5013247;28;20050;-80
2024/01/30 05:14:52;;;;;;;4.88;1.75;;;;;;;;;;5007224;28;20693;-81
2024/01/30 05:17:19;;;;;;;3.25;3.00;;;;;;;;;;5014821;28;20072;-80
2024/01/30 05:19:47;;;;;;;5.47;4.90;;;;;;;;;;5009239;28;20038;-79
2024/01/30 05:22:15;;;;;;;1.02;1.02;;;;;;;;;;5006232;28;20053;-80
2024/01/30 05:24:43;;;;;;;2.83;2.55;;;;;;;;;;5006083;28;20531;-81
2024/01/30 05:27:13;;;;;;;2.20;1.83;;;;;;;;;;5008967;28;20077;-80
2024/01/30 05:29:43;;;;;;;0.73;0.65;;;;;;;;;;5005980;28;20054;-79
2024/01/30 05:32:11;;;;;;;1.58;1.48;;;;;;;;;;5002565;28;20050;-80
2024/01/30 05:34:38;;;;;;;5.78;2.33;;;;;;;;;;4998649;28;20042;-79
2024/01/30 05:37:06;;;;;;;2.28;2.13;;;;;;;;;;5005724;28;20133;-80
2024/01/30 05:39:33;;;;;;;1.27;0.82;;;;;;;;;;5005225;28;20060;-80
2024/01/30 05:42:00;;;;;;;0.80;0.80;;;;;;;;;;5007276;28;20042;-80
2024/01/30 05:44:28;;;;;;;1.15;1.10;;;;;;;;;;5008670;28;20054;-80
2024/01/30 05:46:55;;;;;;;5.10;3.55;;;;;;;;;;5003458;28;20049;-80
2024/01/30 05:49:22;;;;;;;0.80;0.63;;;;;;;;;;5002865;28;20049;-80
2024/01/30 05:51:50;;;;;;;3.80;3.47;;;;;;;;;;5007769;28;20053;-80
2024/01/30 05:54:17;;;;;;;5.60;4.47;;;;;;;;;;4996700;28;20056;-80
2024/01/30 05:56:44;;;;;;;2.00;1.48;;;;;;;;;;5001740;28;20078;-79
2024/01/30 05:59:12;;;;;;;3.78;2.88;;;;;;;;;;5006404;28;20057;-80
2024/01/30 06:01:45;;;;;;;3.40;2.63;;;;;;;;;;5003112;28;20074;-80
2024/01/30 06:04:13;;;;;;;3.33;3.03;;;;;;;;;;4996037;28;20053;-81
2024/01/30 06:06:40;;;;;;;3.13;2.88;;;;;;;;;;5000180;28;20097;-79
2024/01/30 06:09:09;;;;;;;1.58;1.48;;;;;;;;;;4991727;28;20042;-77
2024/01/30 06:11:37;;;;;;;2.13;2.03;;;;;;;;;;4996353;28;20054;-77
2024/01/30 06:14:04;;;;;;;7.47;4.45;;;;;;;;;;4990674;28;20121;-78
2024/01/30 06:16:32;;;;;;;18.30;5.18;;;;;;;;;;4983083;28;20500;-77
2024/01/30 06:19:00;;;;;;;3.67;2.95;;;;;;;;;;4989881;28;20129;-78
2024/01/30 06:21:27;;;;;;;1.23;1.23;;;;;;;;;;4990930;28;20049;-77
2024/01/30 06:23:55;;;;;;;3.22;2.78;;;;;;;;;;4992847;28;20046;-78
2024/01/30 06:26:22;;;;;;;4.13;3.03;;;;;;;;;;4999060;28;20616;-80
2024/01/30 06:28:50;;;;;;;7.68;4.35;;;;;;;;;;5005056;28;20057;-80
2024/01/30 06:31:17;;;;;;;2.30;1.10;;;;;;;;;;5004570;28;20061;-80
2024/01/30 06:33:47;;;;;;;2.22;1.92;;;;;;;;;;5000933;28;20147;-80
2024/01/30 06:36:15;;;;;;;6.85;1.10;;;;;;;;;;5061749;23;20135;-79
2024/01/30 06:38:45;;;;;;;1.27;1.15;;;;;;;;;;4992696;28;20045;-80
2024/01/30 06:41:13;;;;;;;1.98;1.85;;;;;;;;;;4990962;28;20054;-81
2024/01/30 06:43:56;;;;;;;3.53;3.20;;;;;;;;;;4989204;28;20077;-80
2024/01/30 06:46:24;;;;;;;7.03;3.50;;;;;;;;;;4990856;28;20105;-81
2024/01/30 06:48:55;;;;;;;1.98;1.88;;;;;;;;;;4978463;28;20046;-82
2024/01/30 06:51:51;;;;;;;4.22;3.30;;;;;;;;;;4989626;28;20045;-80
2024/01/30 06:54:21;;;;;;;4.75;2.33;;;;;;;;;;4994001;28;20053;-80
2024/01/30 06:56:48;;;;;;;0.10;0.10;;;;;;;;;;4991021;28;20073;-83
2024/01/30 06:59:16;;;;;;;0.22;0.22;;;;;;;;;;4980414;28;20038;-84
2024/01/30 07:01:47;;;;;;;2.00;1.83;;;;;;;;;;4983060;28;20038;-80
2024/01/30 07:04:15;;;;;;;3.88;3.67;;;;;;;;;;4984853;28;20082;-82
2024/01/30 07:06:43;;;;;;;6.30;4.00;;;;;;;;;;4999044;28;20055;-81
2024/01/30 07:09:10;;;;;;;4.68;3.28;;;;;;;;;;4986801;28;20101;-79
2024/01/30 07:11:38;;;;;;;2.08;1.98;;;;;;;;;;4988572;28;20121;-80
2024/01/30 07:14:05;;;;;;;8.38;3.20;;;;;;;;;;4987399;28;20576;-80
2024/01/30 07:16:33;;;;;;;2.53;2.33;;;;;;;;;;4988572;28;20152;-81
2024/01/30 07:19:00;;;;;;;4.95;3.60;;;;;;;;;;4980820;28;20096;-80
2024/01/30 07:21:28;;;;;;;3.55;3.25;;;;;;;;;;4987373;28;20054;-80
2024/01/30 07:23:56;;;;;;;4.60;3.90;;;;;;;;;;4987311;28;20046;-81
2024/01/30 07:26:24;;;;;;;5.93;4.47;;;;;;;;;;4985400;28;20101;-80
2024/01/30 07:28:52;;;;;;;2.00;1.90;;;;;;;;;;4986973;28;20503;-79
2024/01/30 07:31:23;;;;;;;12.38;7.22;;;;;;;;;;4985444;28;20042;-82
2024/01/30 07:33:53;;;;;;;2.63;2.17;;;;;;;;;;4987145;28;20110;-79
2024/01/30 07:36:22;;;;;;;4.32;3.95;;;;;;;;;;4990561;28;20108;-80
2024/01/30 07:38:50;;;;;;;8.10;4.60;;;;;;;;;;4988241;28;20041;-79
2024/01/30 07:41:18;;;;;;;5.97;4.70;;;;;;;;;;4988311;28;20066;-81
2024/01/30 07:43:45;;;;;;;4.30;3.92;;;;;;;;;;4979562;28;20047;-80
2024/01/30 07:46:12;;;;;;;4.75;3.95;;;;;;;;;;4984492;28;20519;-79
2024/01/30 07:48:40;;;;;;;3.50;3.22;;;;;;;;;;4982929;28;20965;-80
2024/01/30 07:51:07;;;;;;;2.60;2.40;;;;;;;;;;4985970;28;20038;-79
2024/01/30 07:53:35;;;;;;;12.13;5.45;;;;;;;;;;4979493;28;20856;-82
2024/01/30 07:56:02;;;;;;;4.40;3.67;;;;;;;;;;4983017;28;20049;-81
2024/01/30 07:58:30;;;;;;;3.97;3.50;;;;;;;;;;4986312;28;20116;-80
2024/01/30 08:00:58;;;;;;;4.95;1.92;;;;;;;;;;4986563;28;20036;-83
2024/01/30 08:03:26;;;;;;;1.45;0.85;;;;;;;;;;4966601;28;20045;-81
2024/01/30 08:05:53;;;;;;;2.33;2.17;;;;;;;;;;4987819;28;21672;-80
2024/01/30 08:08:21;;;;;;;0.30;0.30;;;;;;;;;;4989397;28;20070;-81
2024/01/30 08:10:49;;;;;;;2.40;1.65;;;;;;;;;;4986844;28;20042;-80
2024/01/30 08:13:17;;;;;;;2.30;1.92;;;;;;;;;;4988721;28;20053;-81
2024/01/30 08:15:44;;;;;;;9.68;7.80;;;;;;;;;;4988608;28;20500;-81
2024/01/30 08:18:11;;;;;;;2.60;2.40;;;;;;;;;;5003721;28;20038;-82
2024/01/30 08:20:39;;;;;;;7.32;2.40;;;;;;;;;;5004972;28;20118;-82
2024/01/30 08:23:06;;;;;;;0.98;0.98;;;;;;;;;;5001829;28;20100;-81
2024/01/30 08:25:34;;;;;;;1.45;1.38;;;;;;;;;;4999122;28;20093;-81
2024/01/30 08:28:01;;;;;;;2.80;2.35;;;;;;;;;;5002168;28;20054;-82
2024/01/30 08:30:29;;;;;;;1.42;1.35;;;;;;;;;;5004745;28;20054;-81
2024/01/30 08:32:56;;;;;;;1.75;1.13;;;;;;;;;;5004263;28;20034;-82
2024/01/30 08:35:25;;;;;;;1.88;1.75;;;;;;;;;;5003535;28;20542;-82
2024/01/30 08:37:54;;;;;;;1.42;1.42;;;;;;;;;;5004367;28;20073;-82
2024/01/30 08:40:21;;;;;;;2.28;2.17;;;;;;;;;;5004957;28;20050;-81
2024/01/30 08:42:49;;;;;;;0.28;0.28;;;;;;;;;;5008391;28;20042;-81
2024/01/30 08:45:17;;;;;;;1.90;1.55;;;;;;;;;;5003125;28;20141;-81
2024/01/30 08:47:44;;;;;;;2.45;2.25;;;;;;;;;;5002277;28;20062;-81
2024/01/30 08:50:12;;;;;;;3.85;3.13;;;;;;;;;;5005812;28;20050;-81
2024/01/30 08:52:42;;;;;;;1.77;1.23;;;;;;;;;;5007938;28;20140;-80
2024/01/30 08:55:12;;;;;;;1.17;1.13;;;;;;;;;;5008778;28;20077;-82
2024/01/30 08:57:39;;;;;;;4.35;2.65;;;;;;;;;;5007230;28;20866;-82
2024/01/30 09:00:09;;;;;;;3.15;2.65;;;;;;;;;;5008421;28;20084;-83
2024/01/30 09:02:39;;;;;;;2.38;2.28;;;;;;;;;;4997121;28;20062;-82
2024/01/30 09:05:07;;;;;;;6.47;3.70;;;;;;;;;;4997284;28;20487;-81
2024/01/30 09:07:34;;;;;;;5.63;3.00;;;;;;;;;;5000825;28;20054;-81
2024/01/30 09:10:03;;;;;;;2.03;1.83;;;;;;;;;;4999307;28;20053;-81
2024/01/30 09:12:30;;;;;;;0.95;0.95;;;;;;;;;;4998001;28;20579;-84
2024/01/30 09:14:58;;;;;;;1.25;1.23;;;;;;;;;;4996600;28;20068;-82
2024/01/30 09:17:25;;;;;;;3.65;2.17;;;;;;;;;;4999711;28;20046;-83
2024/01/30 09:19:53;;;;;;;3.55;3.25;;;;;;;;;;5003242;28;20050;-82
2024/01/30 09:22:21;;;;;;;1.90;1.80;;;;;;;;;;5011347;28;20053;-83
2024/01/30 09:24:49;;;;;;;3.85;2.83;;;;;;;;;;5004991;28;20084;-83
2024/01/30 09:27:20;;;;;;;3.08;2.72;;;;;;;;;;5002653;28;20061;-83
2024/01/30 09:29:47;;;;;;;1.90;1.80;;;;;;;;;;5004905;28;20077;-82
2024/01/30 09:32:14;;;;;;;1.73;1.67;;;;;;;;;;4986752;28;20047;-83
2024/01/30 09:34:42;;;;;;;2.83;2.13;;;;;;;;;;5012365;28;20129;-82
2024/01/30 09:37:09;;;;;;;1.08;1.08;;;;;;;;;;5009272;28;20054;-83
2024/01/30 09:39:38;;;;;;;4.18;3.40;;;;;;;;;;5004665;28;20043;-85
2024/01/30 09:42:13;;;;;;;3.42;2.55;;;;;;;;;;5000858;28;20065;-81
2024/01/30 09:44:43;;;;;;;3.95;3.15;;;;;;;;;;5001323;28;20065;-81
2024/01/30 09:47:28;;;;;;;4.07;2.97;;;;;;;;;;4996704;28;20038;-81
2024/01/30 09:50:19;;;;;;;2.35;2.15;;;;;;;;;;4996457;28;20058;-81
2024/01/30 09:52:54;;;;;;;1.15;0.90;;;;;;;;;;4998556;28;20092;-81
2024/01/30 09:55:27;;;;;;;0.60;0.60;;;;;;;;;;4981048;28;20049;-81
2024/01/30 09:58:11;;;;;;;10.38;1.75;;;;;;;;;;4989370;28;20053;-83
2024/01/30 10:00:48;;;;;;;0.77;0.77;;;;;;;;;;4991297;28;20176;-80
2024/01/30 10:03:31;;;;;;;6.15;4.72;;;;;;;;;;4992241;28;20134;-80
2024/01/30 10:06:12;;;;;;;9.07;6.30;;;;;;;;;;4992576;28;20052;-81
2024/01/30 10:08:50;;;;;;;4.10;3.72;;;;;;;;;;4986531;28;20047;-80
2024/01/30 10:11:19;;;;;;;3.08;2.80;;;;;;;;;;4991732;28;20069;-80
2024/01/30 10:14:01;;;;;;;;;;;;;;;;;;4986906;28;20065;-80
2024/01/30 10:16:39;;;;;;;14.00;6.70;;;;;;;;;;4995436;28;19932;-81
2024/01/30 10:19:14;;;;;;;4.88;2.45;;;;;;;;;;4998051;28;20762;-80
2024/01/30 10:21:44;;;;;;;3.13;2.85;;;;;;;;;;4999915;28;20128;-81
2024/01/30 10:24:19;;;;;;;5.75;4.95;;;;;;;;;;4996798;28;20057;-80
2024/01/30 10:26:49;;;;;;;13.20;6.65;;;;;;;;;;4995766;28;20046;-80
2024/01/30 10:29:25;;;;;;;6.05;4.95;;;;;;;;;;4994628;28;20520;-80
2024/01/30 10:32:03;;;;;;;2.53;2.28;;;;;;;;;;4993442;28;20081;-82
2024/01/30 10:34:30;;;;;;;2.72;2.53;;;;;;;;;;4992482;28;20050;-80
2024/01/30 10:37:07;;;;;;;6.95;3.97;;;;;;;;;;4998316;28;20038;-81
2024/01/30 10:39:38;;;;;;;7.00;5.78;;;;;;;;;;4999467;28;20046;-82
2024/01/30 10:42:06;;;;;;;5.53;4.05;;;;;;;;;;5000181;28;20081;-81
2024/01/30 10:44:38;;;;;;;1.80;1.70;;;;;;;;;;5002441;28;20041;-81
2024/01/30 10:47:05;;;;;;;;;;;;;;;;;;5000420;28;20097;-81
2024/01/30 10:49:36;;;;;;;5.85;4.53;;;;;;;;;;5000276;28;19981;-81
2024/01/30 10:52:06;;;;;;;3.05;2.78;;;;;;;;;;5014270;28;20073;-82
2024/01/30 10:54:35;;;;;;;4.78;2.05;;;;;;;;;;5002808;28;20053;-80
2024/01/30 10:57:04;;;;;;;2.95;2.45;;;;;;;;;;5001817;28;20038;-81
2024/01/30 10:59:32;;;;;;;2.88;2.63;;;;;;;;;;5000264;28;20041;-82
2024/01/30 11:02:02;;;;;;;2.17;1.98;;;;;;;;;;5001306;28;20031;-86
2024/01/30 11:04:37;;;;;;;8.52;4.95;;;;;;;;;;5001495;28;20221;-81
2024/01/30 11:07:18;;;;;;;6.90;4.90;;;;;;;;;;5002114;28;20046;-81
2024/01/30 11:09:49;;;;;;;2.42;2.30;;;;;;;;;;5003709;28;20054;-82
2024/01/30 11:12:25;;;;;;;2.25;2.15;;;;;;;;;;5003955;28;20054;-81
2024/01/30 11:15:06;;;;;;;7.50;6.03;;;;;;;;;;5001424;28;20050;-81
2024/01/30 11:17:53;;;;;;;5.57;5.03;;;;;;;;;;4997620;28;20043;-80
2024/01/30 11:20:26;;;;;;;2.70;2.50;;;;;;;;;;5002481;28;20107;-82
2024/01/30 11:22:56;;;;;;;0.57;0.57;;;;;;;;;;4985446;28;20096;-81
2024/01/30 11:25:24;;;;;;;1.75;1.65;;;;;;;;;;4998024;28;20042;-81
2024/01/30 11:27:54;;;;;;;0.93;0.93;;;;;;;;;;4994304;28;20046;-81
2024/01/30 11:30:26;;;;;;;1.55;1.10;;;;;;;;;;4997337;28;20057;-81
2024/01/30 11:33:08;;;;;;;3.25;2.55;;;;;;;;;;4998800;28;20238;-80
2024/01/30 11:35:40;;;;;;;2.50;2.30;;;;;;;;;;4999097;28;20050;-82
2024/01/30 11:38:13;;;;;;;3.65;3.25;;;;;;;;;;5001930;28;20052;-81
2024/01/30 11:40:41;;;;;;;0.85;0.85;;;;;;;;;;4997686;28;20042;-82
2024/01/30 11:43:09;;;;;;;1.08;1.08;;;;;;;;;;5001108;28;20050;-82
2024/01/30 11:45:37;;;;;;;2.47;2.33;;;;;;;;;;5004775;28;20069;-81
2024/01/30 11:48:05;;;;;;;2.17;2.08;;;;;;;;;;5001885;28;20046;-82
2024/01/30 11:50:34;;;;;;;2.42;0.60;;;;;;;;;;5012053;28;20128;-81
2024/01/30 11:53:02;;;;;;;2.08;1.35;;;;;;;;;;5006237;28;20073;-81
2024/01/30 11:55:30;;;;;;;0.43;0.43;;;;;;;;;;5004078;28;20069;-81
2024/01/30 11:58:02;;;;;;;1.90;1.75;;;;;;;;;;5000184;28;20129;-81
2024/01/30 12:00:44;;;;;;;1.23;1.23;;;;;;;;;;5000303;28;20380;-81
2024/01/30 12:03:15;;;;;;;1.52;1.42;;;;;;;;;;5002214;28;20077;-82
2024/01/30 12:06:00;;;;;;;3.15;1.92;;;;;;;;;;5001285;28;20046;-81
2024/01/30 12:08:30;;;;;;;1.63;1.10;;;;;;;;;;4987599;28;20405;-80
2024/01/30 12:11:05;;;;;;;0.70;0.70;;;;;;;;;;4994836;28;20126;-81
2024/01/30 12:13:42;;;;;;;0.73;0.73;;;;;;;;;;4999977;28;20073;-82
2024/01/30 12:16:29;;;;;;;2.55;2.35;;;;;;;;;;4997887;28;20102;-80
2024/01/30 12:19:03;;;;;;;3.85;3.55;;;;;;;;;;4995473;28;20054;-81
2024/01/30 12:21:44;;;;;;;0.45;0.45;;;;;;;;;;5002938;28;20108;-83
2024/01/30 12:28:11;;;;;;;1.58;1.48;;;;;;;;;;5002080;28;20077;-83
2024/01/30 12:30:38;;;;;;;0.95;0.65;;;;;;;;;;5002854;28;21756;-81
2024/01/30 12:33:08;;;;;;;2.40;2.25;;;;;;;;;;4998535;28;20046;-82
2024/01/30 12:35:36;;;;;;;1.38;1.27;;;;;;;;;;4996937;28;20078;-81
2024/01/30 12:38:10;;;;;;;3.78;3.28;;;;;;;;;;4994484;28;20081;-80
2024/01/30 12:40:37;;;;;;;5.25;4.65;;;;;;;;;;4993266;28;20137;-80
2024/01/30 12:43:08;;;;;;;0.30;0.30;;;;;;;;;;4988237;28;20061;-81
2024/01/30 12:45:36;;;;;;;0.77;0.77;;;;;;;;;;5021676;22;21208;-77
2024/01/30 12:48:04;;;;;;;0.43;0.43;;;;;;;;;;4994670;28;21216;-78
2024/01/30 12:50:32;;;;;;;2.88;2.40;;;;;;;;;;4996539;28;20546;-77
2024/01/30 12:52:59;;;;;;;1.60;1.50;;;;;;;;;;4999555;28;20495;-77
2024/01/30 12:55:28;;;;;;;0.15;0.15;;;;;;;;;;4998215;28;20149;-76
2024/01/30 12:57:56;;;;;;;2.08;1.95;;;;;;;;;;4997234;28;20037;-76
2024/01/30 13:00:23;;;;;;;0.80;0.70;;;;;;;;;;4996109;28;20530;-78
2024/01/30 13:02:51;;;;;;;1.13;0.90;;;;;;;;;;4999274;28;20527;-78
2024/01/30 13:05:18;;;;;;;0.28;0.28;;;;;;;;;;5000283;28;20053;-77
2024/01/30 13:07:46;;;;;;;4.07;3.88;;;;;;;;;;5001691;28;20633;-76
2024/01/30 13:10:13;;;;;;;2.10;0.82;;;;;;;;;;5002128;28;20070;-76
2024/01/30 13:12:41;;;;;;;3.80;3.47;;;;;;;;;;4999764;28;20526;-79
2024/01/30 13:15:11;;;;;;;1.63;1.58;;;;;;;;;;4991788;28;20083;-81
2024/01/30 13:17:38;;;;;;;1.75;1.52;;;;;;;;;;4999125;28;20066;-78
2024/01/30 13:20:08;;;;;;;2.13;1.75;;;;;;;;;;4999903;28;20527;-77
2024/01/30 13:22:38;;;;;;;0.45;0.45;;;;;;;;;;4987760;28;20531;-78
2024/01/30 13:25:07;;;;;;;3.55;2.63;;;;;;;;;;4984042;28;20042;-78
2024/01/30 13:27:37;;;;;;;1.55;1.45;;;;;;;;;;4975757;28;20265;-77
2024/01/30 13:30:04;;;;;;;3.15;2.90;;;;;;;;;;4995355;28;20052;-79
2024/01/30 13:32:32;;;;;;;0.35;0.35;;;;;;;;;;4997169;28;20523;-77
2024/01/30 13:34:59;;;;;;;0.43;0.43;;;;;;;;;;4997078;28;20046;-76
2024/01/30 13:37:27;;;;;;;0.82;0.82;;;;;;;;;;5002489;28;20416;-76
2024/01/30 13:39:55;;;;;;;2.67;2.53;;;;;;;;;;4990272;28;20049;-77
2024/01/30 13:42:23;;;;;;;0.68;0.40;;;;;;;;;;4993029;28;20054;-76
2024/01/30 13:44:50;;;;;;;2.08;1.88;;;;;;;;;;5002952;28;20042;-77
2024/01/30 13:47:21;;;;;;;0.10;0.10;;;;;;;;;;4993536;28;20377;-76
2024/01/30 13:49:49;;;;;;;0.60;0.60;;;;;;;;;;5005943;28;20137;-81
2024/01/30 13:52:16;;;;;;;0.35;0.35;;;;;;;;;;5000060;28;20092;-77
2024/01/30 13:54:45;;;;;;;0.50;0.50;;;;;;;;;;4997642;28;20069;-77
2024/01/30 13:57:14;;;;;;;1.27;1.13;;;;;;;;;;4995338;28;20144;-77
2024/01/30 13:59:42;;;;;;;0.30;0.30;;;;;;;;;;4990361;28;20458;-76
2024/01/30 14:02:10;;;;;;;10.82;4.55;;;;;;;;;;4997591;28;20042;-78
2024/01/30 14:04:38;;;;;;;3.40;1.05;;;;;;;;;;4999380;28;20130;-78
2024/01/30 14:07:06;;;;;;;2.60;2.28;;;;;;;;;;4997351;28;20047;-81
2024/01/30 14:09:34;;;;;;;2.30;2.10;;;;;;;;;;5000846;28;20108;-77
2024/01/30 14:12:02;;;;;;;1.17;1.13;;;;;;;;;;4997185;28;20161;-79
2024/01/30 14:14:29;;;;;;;1.10;1.05;;;;;;;;;;4996543;28;20050;-81
2024/01/30 14:16:57;;;;;;;0.20;0.20;;;;;;;;;;4997970;28;20053;-78
2024/01/30 14:19:25;;;;;;;1.77;1.30;;;;;;;;;;4998607;28;20054;-79
2024/01/30 14:21:53;;;;;;;2.83;1.80;;;;;;;;;;4997620;28;20504;-78
2024/01/30 14:24:21;;;;;;;3.28;3.03;;;;;;;;;;4987257;28;20647;-77
2024/01/30 14:26:49;;;;;;;2.80;1.90;;;;;;;;;;4990505;28;20536;-77
2024/01/30 14:29:16;;;;;;;3.53;1.95;;;;;;;;;;4996935;28;20053;-79
2024/01/30 14:31:44;;;;;;;0.30;0.30;;;;;;;;;;4994343;28;20049;-76
2024/01/30 14:34:12;;;;;;;5.70;4.20;;;;;;;;;;4997809;28;20172;-79
2024/01/30 14:36:40;;;;;;;11.10;10.32;;;;;;;;;;5000486;28;20058;-77
2024/01/30 14:39:08;;;;;;;1.00;1.00;;;;;;;;;;4999211;28;20072;-77
2024/01/30 14:41:35;;;;;;;1.92;1.55;;;;;;;;;;4996787;28;20105;-78
2024/01/30 14:44:05;;;;;;;2.25;2.15;;;;;;;;;;4996707;28;20038;-79
2024/01/30 14:46:34;;;;;;;0.55;0.55;;;;;;;;;;4997430;28;20057;-77
2024/01/30 14:49:05;;;;;;;3.38;0.93;;;;;;;;;;4999413;28;20050;-76
2024/01/30 14:51:33;;;;;;;1.52;1.42;;;;;;;;;;4993141;28;20128;-77
2024/01/30 14:54:00;;;;;;;1.17;1.17;;;;;;;;;;4994286;28;20047;-77
2024/01/30 14:56:28;;;;;;;2.15;2.05;;;;;;;;;;4995892;28;20466;-77
2024/01/30 14:58:56;;;;;;;0.28;0.28;;;;;;;;;;4992736;28;20051;-77